Time;durP1;ratioP1;P1;durP2;ratioP2;P2;SDS_P1;SDS_P2;PMS_P1;PMS_P2;Temp;Humidity;BMP_temperature;BMP_pressure;BME280_temperature;BME280_humidity;BME280_pressure;Samples;Min_cycle;Max_cycle;Signal;HPM_P1;HPM_P2
2022/06/16 00:01:57;;;;;;;15.63;5.72;;;16.80;99.90;;;;;;5084115;27;20483;-74
2022/06/16 00:04:24;;;;;;;6.70;4.55;;;16.60;99.90;;;;;;5117324;27;20122;-71
2022/06/16 00:06:50;;;;;;;13.57;5.38;;;;;;;;;;5117550;27;20043;-71
2022/06/16 00:09:17;;;;;;;12.88;5.32;;;;;;;;;;5117267;27;20502;-70
2022/06/16 00:11:43;;;;;;;7.80;4.68;;;15.50;99.70;;;;;;5113621;28;20066;-71
2022/06/16 00:14:10;;;;;;;10.10;5.00;;;;;;;;;;5113205;28;20127;-71
2022/06/16 00:16:36;;;;;;;8.57;4.53;;;;;;;;;;5113988;28;20044;-71
2022/06/16 00:19:02;;;;;;;10.05;4.75;;;16.00;96.40;;;;;;5113629;28;20038;-71
2022/06/16 00:21:28;;;;;;;10.35;4.90;;;15.20;99.70;;;;;;5096631;28;20096;-73
2022/06/16 00:23:54;;;;;;;17.88;5.50;;;16.00;99.80;;;;;;5113419;28;20047;-74
2022/06/16 00:26:23;;;;;;;10.13;4.80;;;15.70;96.40;;;;;;5113654;28;20036;-73
2022/06/16 00:28:49;;;;;;;11.65;4.85;;;;;;;;;;5096776;28;20035;-73
2022/06/16 00:31:18;;;;;;;10.60;4.53;;;16.10;96.50;;;;;;5113410;28;20075;-74
2022/06/16 00:33:44;;;;;;;10.70;4.22;;;;;;;;;;5096440;28;20403;-73
2022/06/16 00:36:11;;;;;;;9.73;4.00;;;;;;;;;;5113390;28;20468;-73
2022/06/16 00:38:37;;;;;;;10.30;4.30;;;;;;;;;;5096533;28;20058;-73
2022/06/16 00:41:03;;;;;;;9.05;4.47;;;14.90;99.60;;;;;;5113575;28;20032;-74
2022/06/16 00:43:30;;;;;;;5.88;3.78;;;;;;;;;;5096471;28;20054;-74
2022/06/16 00:46:05;;;;;;;8.55;4.10;;;15.80;96.50;;;;;;5113155;28;20043;-74
2022/06/16 00:49:12;;;;;;;7.35;4.22;;;15.60;96.70;;;;;;5096228;28;20126;-74
2022/06/16 00:51:49;;;;;;;11.35;4.07;;;15.60;96.50;;;;;;5076296;28;20047;-74
2022/06/16 00:54:31;;;;;;;5.95;3.50;;;14.40;99.60;;;;;;5112854;28;20044;-73
2022/06/16 00:57:02;;;;;;;9.82;3.95;;;14.70;99.80;;;;;;5113067;28;20044;-74
2022/06/16 00:59:28;;;;;;;10.13;4.25;;;;;;;;;;5113023;28;20484;-74
2022/06/16 01:01:54;;;;;;;9.27;3.55;;;;;;;;;;5114227;28;20061;-74
2022/06/16 01:07:10;;;;;;;9.15;4.10;;;16.20;99.90;;;;;;5098677;28;20046;-74
2022/06/16 01:09:38;;;;;;;8.18;3.70;;;15.70;96.50;;;;;;5112890;28;20054;-73
2022/06/16 01:15:24;;;;;;;6.28;3.60;;;16.40;99.90;;;;;;5112873;28;20047;-74
2022/06/16 01:18:08;;;;;;;8.65;3.33;;;15.50;96.50;;;;;;5112772;28;20046;-74
2022/06/16 01:20:47;;;;;;;5.95;3.42;;;15.60;96.50;;;;;;5096211;28;20032;-74
2022/06/16 01:23:31;;;;;;;8.63;3.28;;;15.40;99.80;;;;;;5112816;28;20067;-74
2022/06/16 01:26:28;;;;;;;7.85;3.55;;;15.70;96.80;;;;;;5111995;28;20050;-73
2022/06/16 01:29:00;;;;;;;9.50;3.50;;;;;;;;;;5112600;28;20104;-74
2022/06/16 01:31:50;;;;;;;7.90;2.95;;;15.70;96.40;;;;;;5095592;28;20448;-73
2022/06/16 01:34:35;;;;;;;10.52;3.05;;;16.00;99.90;;;;;;5111440;28;20040;-74
2022/06/16 01:37:19;;;;;;;10.98;3.53;;;15.40;96.40;;;;;;5112660;28;20518;-74
2022/06/16 01:40:06;;;;;;;8.00;2.92;;;15.50;96.40;;;;;;5112473;28;20043;-74
2022/06/16 01:42:41;;;;;;;7.95;3.60;;;15.50;96.60;;;;;;5112379;28;20050;-74
2022/06/16 01:45:07;;;;;;;7.22;2.80;;;;;;;;;;5112676;28;20361;-74
2022/06/16 01:47:37;;;;;;;6.63;3.10;;;16.30;99.90;;;;;;5095515;28;20051;-74
2022/06/16 01:50:11;;;;;;;6.82;3.05;;;15.40;96.70;;;;;;5095404;28;20047;-74
2022/06/16 01:52:52;;;;;;;7.70;2.67;;;15.10;96.80;;;;;;5112216;28;20138;-74
2022/06/16 01:55:24;;;;;;;7.07;2.72;;;15.50;96.50;;;;;;5095415;28;20044;-74
2022/06/16 01:58:00;;;;;;;9.32;3.13;;;14.70;99.80;;;;;;5112466;28;20085;-74
2022/06/16 02:00:27;;;;;;;8.48;2.60;;;15.50;96.30;;;;;;5112656;28;20139;-74
2022/06/16 02:03:10;;;;;;;6.38;2.67;;;15.30;96.80;;;;;;5112282;28;20049;-74
2022/06/16 02:05:44;;;;;;;;;;;15.10;97.10;;;;;;5114443;28;20092;-74
2022/06/16 02:08:18;;;;;;;7.15;2.47;;;15.70;99.90;;;;;;5112551;28;19920;-74
2022/06/16 02:10:52;;;;;;;8.57;2.38;;;14.40;99.90;;;;;;5112344;28;20051;-74
2022/06/16 02:13:23;;;;;;;7.35;2.65;;;15.20;96.90;;;;;;5112162;28;20495;-71
2022/06/16 02:15:52;;;;;;;5.28;2.60;;;15.40;99.90;;;;;;5112164;28;20051;-71
2022/06/16 02:18:24;;;;;;;6.45;2.30;;;15.10;96.90;;;;;;5112280;28;20548;-71
2022/06/16 02:20:52;;;;;;;4.05;2.33;;;15.20;97.10;;;;;;5095125;28;20482;-71
2022/06/16 02:23:18;;;;;;;4.40;2.60;;;;;;;;;;5094976;28;20089;-71
2022/06/16 02:25:47;;;;;;;7.70;2.83;;;15.40;99.90;;;;;;5112050;28;20039;-71
2022/06/16 02:28:15;;;;;;;6.25;2.67;;;;;;;;;;5112229;28;20052;-71
2022/06/16 02:31:09;;;;;;;8.52;2.55;;;15.00;97.40;;;;;;5112013;28;20070;-71
2022/06/16 02:33:38;;;;;;;8.30;2.50;;;15.50;99.90;;;;;;5094926;28;20045;-71
2022/06/16 02:36:19;;;;;;;7.03;2.47;;;;;;;;;;5111966;28;20035;-71
2022/06/16 02:38:45;;;;;;;4.57;2.20;;;;;;;;;;5115596;28;20380;-71
2022/06/16 02:41:26;;;;;;;8.13;3.10;;;15.20;99.90;;;;;;5098911;28;20036;-71
2022/06/16 02:44:10;;;;;;;8.20;2.55;;;;;;;;;;5115615;28;20097;-70
2022/06/16 02:46:59;;;;;;;6.65;2.55;;;14.80;97.30;;;;;;5115695;28;20039;-70
2022/06/16 02:49:44;;;;;;;4.97;2.40;;;15.50;99.90;;;;;;5115507;28;20108;-71
2022/06/16 02:52:32;;;;;;;6.43;2.50;;;14.10;99.90;;;;;;5115602;28;20126;-71
2022/06/16 02:55:10;;;;;;;9.57;3.00;;;13.90;99.90;;;;;;5098215;28;20036;-70
2022/06/16 02:57:48;;;;;;;4.88;2.22;;;14.70;97.70;;;;;;5098357;28;20035;-71
2022/06/16 03:00:18;;;;;;;7.75;2.33;;;14.70;97.60;;;;;;5115275;28;20035;-71
2022/06/16 03:02:44;;;;;;;4.57;2.65;;;15.90;99.90;;;;;;5115472;28;20047;-71
2022/06/16 03:05:12;;;;;;;7.22;2.72;;;14.90;97.70;;;;;;5115353;28;20036;-71
2022/06/16 03:07:39;;;;;;;9.27;2.63;;;;;;;;;;5115123;28;20487;-70
2022/06/16 03:10:06;;;;;;;6.93;2.47;;;14.50;97.80;;;;;;5115313;28;20058;-71
2022/06/16 03:12:32;;;;;;;4.60;2.63;;;;;;;;;;5114726;28;20086;-71
2022/06/16 03:14:58;;;;;;;2.85;1.90;;;15.60;99.90;;;;;;5114954;28;20536;-70
2022/06/16 03:17:24;;;;;;;5.68;2.20;;;;;;;;;;5097884;28;20043;-70
2022/06/16 03:19:50;;;;;;;5.50;2.05;;;;;;;;;;5097850;28;20051;-70
2022/06/16 03:22:19;;;;;;;7.75;2.95;;;;;;;;;;5115013;28;20035;-70
2022/06/16 03:24:46;;;;;;;8.98;2.85;;;;;;;;;;5114945;28;20039;-70
2022/06/16 03:27:12;;;;;;;6.57;2.55;;;14.00;99.90;;;;;;5114736;28;20046;-73
2022/06/16 03:29:38;;;;;;;6.20;2.50;;;;;;;;;;5098059;28;20036;-74
2022/06/16 03:32:05;;;;;;;7.05;2.53;;;13.50;99.90;;;;;;5081199;28;20127;-74
2022/06/16 03:34:31;;;;;;;5.22;2.40;;;;;;;;;;5080755;28;20522;-73
2022/06/16 03:36:57;;;;;;;4.65;2.30;;;;;;;;;;5114509;28;20036;-73
2022/06/16 03:39:23;;;;;;;5.82;2.45;;;14.50;98.80;;;;;;5114823;28;20035;-74
2022/06/16 03:41:49;;;;;;;6.80;2.92;;;;;;;;;;5114557;28;20369;-74
2022/06/16 03:44:15;;;;;;;8.25;2.60;;;;;;;;;;5114424;28;20035;-74
2022/06/16 03:46:41;;;;;;;7.97;2.50;;;;;;;;;;5097665;28;20138;-73
2022/06/16 03:49:08;;;;;;;7.00;2.60;;;;;;;;;;5096271;28;20039;-74
2022/06/16 03:51:34;;;;;;;3.95;2.13;;;;;;;;;;5097184;28;20039;-73
2022/06/16 03:54:00;;;;;;;5.88;2.75;;;;;;;;;;5114083;28;20390;-74
2022/06/16 03:56:26;;;;;;;8.80;2.50;;;15.40;99.90;;;;;;5114230;28;20123;-73
2022/06/16 03:58:56;;;;;;;7.32;2.60;;;15.80;99.90;;;;;;5097155;28;20122;-74
2022/06/16 04:01:22;;;;;;;8.38;2.67;;;;;;;;;;5114031;28;20036;-74
2022/06/16 04:04:00;;;;;;;5.63;2.10;;;;;;;;;;5097360;28;20122;-74
2022/06/16 04:06:28;;;;;;;6.45;2.30;;;14.80;98.70;;;;;;5114270;28;20122;-75
2022/06/16 04:08:54;;;;;;;6.60;2.20;;;;;;;;;;5113925;28;20115;-74
2022/06/16 04:11:32;;;;;;;4.53;2.60;;;;;;;;;;5115900;27;20036;-74
2022/06/16 04:14:10;;;;;;;5.55;2.63;;;14.80;97.80;;;;;;5117100;27;20047;-74
2022/06/16 04:16:39;;;;;;;5.22;2.20;;;14.80;98.70;;;;;;5117445;27;20060;-74
2022/06/16 04:19:06;;;;;;;4.60;2.47;;;14.80;98.60;;;;;;5117147;27;20038;-74
2022/06/16 04:21:35;;;;;;;7.60;2.47;;;15.10;98.60;;;;;;5117673;27;20042;-74
2022/06/16 04:24:01;;;;;;;6.00;2.60;;;;;;;;;;5117090;27;20038;-74
2022/06/16 04:26:27;;;;;;;7.35;2.60;;;16.00;99.90;;;;;;5117072;27;20075;-74
2022/06/16 04:28:52;;;;;;;9.50;2.40;;;15.60;99.90;;;;;;5117305;27;20043;-74
2022/06/16 04:31:18;;;;;;;5.38;2.45;;;14.40;99.90;;;;;;5117033;27;20543;-74
2022/06/16 04:33:44;;;;;;;4.35;2.30;;;;;;;;;;5116850;27;20049;-74
2022/06/16 04:36:13;;;;;;;7.35;2.72;;;14.00;99.90;;;;;;5116707;27;20520;-74
2022/06/16 04:38:39;;;;;;;4.45;2.17;;;16.00;99.90;;;;;;5116986;27;20031;-74
2022/06/16 04:41:05;;;;;;;5.53;2.50;;;;;;;;;;5116675;27;20039;-74
2022/06/16 04:43:31;;;;;;;5.68;2.30;;;;;;;;;;5117166;27;20077;-74
2022/06/16 04:45:58;;;;;;;7.40;2.58;;;;;;;;;;5116960;27;20383;-74
2022/06/16 04:48:25;;;;;;;6.68;2.75;;;14.20;99.90;;;;;;5116651;27;20043;-74
2022/06/16 04:50:51;;;;;;;6.78;3.20;;;;;;;;;;5099623;27;20035;-74
2022/06/16 04:53:17;;;;;;;4.43;2.67;;;;;;;;;;5116393;27;20050;-74
2022/06/16 04:55:43;;;;;;;8.02;2.95;;;;;;;;;;5116527;27;20039;-74
2022/06/16 04:58:09;;;;;;;7.55;2.55;;;;;;;;;;5116736;27;20436;-74
2022/06/16 05:00:35;;;;;;;6.82;2.35;;;;;;;;;;5116143;27;20045;-74
2022/06/16 05:03:02;;;;;;;10.40;3.10;;;;;;;;;;5099250;27;20513;-74
2022/06/16 05:05:28;;;;;;;5.65;2.63;;;;;;;;;;5099402;27;20126;-74
2022/06/16 05:07:53;;;;;;;6.25;2.80;;;15.20;99.90;;;;;;5116268;27;20130;-74
2022/06/16 05:10:19;;;;;;;5.90;2.78;;;15.90;99.90;;;;;;5099483;27;20122;-73
2022/06/16 05:12:45;;;;;;;7.85;3.53;;;;;;;;;;5115932;27;20058;-75
2022/06/16 05:15:11;;;;;;;8.10;3.03;;;;;;;;;;5116414;27;20391;-73
2022/06/16 05:17:38;;;;;;;8.13;3.22;;;;;;;;;;5116015;27;20122;-74
2022/06/16 05:20:04;;;;;;;5.75;3.15;;;16.10;99.90;;;;;;5099162;27;20043;-74
2022/06/16 05:22:30;;;;;;;11.73;3.30;;;;;;;;;;5099524;27;20046;-75
2022/06/16 05:24:56;;;;;;;6.03;2.92;;;;;;;;;;5099096;27;20038;-74
2022/06/16 05:27:22;;;;;;;6.45;2.67;;;15.60;99.90;;;;;;5099136;27;20038;-74
2022/06/16 05:29:48;;;;;;;7.05;2.58;;;;;;;;;;5099041;27;20051;-74
2022/06/16 05:32:14;;;;;;;7.00;2.97;;;;;;;;;;5099432;28;20045;-74
2022/06/16 05:34:42;;;;;;;7.47;2.75;;;;;;;;;;5116442;28;20041;-70
2022/06/16 05:37:08;;;;;;;8.15;2.50;;;14.30;99.90;;;;;;5098827;28;20084;-71
2022/06/16 05:39:34;;;;;;;7.18;2.58;;;;;;;;;;5116187;28;20043;-71
2022/06/16 05:42:00;;;;;;;8.38;2.78;;;;;;;;;;5099247;28;20058;-71
2022/06/16 05:44:26;;;;;;;9.40;2.65;;;;;;;;;;5115892;28;20043;-71
2022/06/16 05:46:52;;;;;;;6.05;2.42;;;16.60;99.90;;;;;;5099171;28;20047;-70
2022/06/16 05:49:18;;;;;;;6.55;2.33;;;;;;;;;;5099067;28;20471;-70
2022/06/16 05:51:44;;;;;;;7.20;2.60;;;;;;;;;;5116099;28;20042;-70
2022/06/16 05:54:10;;;;;;;7.45;2.78;;;;;;;;;;5115559;28;20072;-70
2022/06/16 05:56:36;;;;;;;5.82;2.47;;;;;;;;;;5115655;28;20043;-70
2022/06/16 05:59:06;;;;;;;5.80;2.53;;;;;;;;;;5099169;28;20039;-70
2022/06/16 06:01:32;;;;;;;8.88;2.65;;;;;;;;;;5115921;28;20039;-71
2022/06/16 06:03:57;;;;;;;7.97;2.33;;;15.30;99.90;;;;;;5098739;28;20039;-71
2022/06/16 06:06:23;;;;;;;7.53;2.30;;;16.30;99.90;;;;;;5115415;28;20126;-71
2022/06/16 06:17:15;;;;;;;7.50;2.10;;;;;;;;;;5116032;28;20479;-71
2022/06/16 06:19:41;;;;;;;6.45;2.30;;;;;;;;;;5115981;28;20047;-71
2022/06/16 06:22:17;;;;;;;6.25;2.33;;;15.80;97.20;;;;;;5115956;28;20089;-71
2022/06/16 06:24:54;;;;;;;7.47;2.85;;;16.30;97.40;;;;;;5115925;28;20476;-72
2022/06/16 06:27:33;;;;;;;29.63;18.45;;;15.60;99.90;;;;;;5116037;28;20426;-72
2022/06/16 06:29:59;;;;;;;5.03;2.70;;;17.00;99.90;;;;;;5116996;28;20434;-70
2022/06/16 06:32:26;;;;;;;13.65;3.03;;;;;;;;;;5115787;28;20402;-72
2022/06/16 06:34:52;;;;;;;6.88;2.53;;;;;;;;;;5115958;28;20168;-71
2022/06/16 06:37:22;;;;;;;6.78;2.30;;;16.40;96.80;;;;;;5098647;28;20470;-71
2022/06/16 06:39:49;;;;;;;8.93;2.10;;;16.30;97.00;;;;;;5115710;28;20043;-71
2022/06/16 06:42:15;;;;;;;4.97;2.58;;;;;;;;;;5098803;28;20089;-72
2022/06/16 06:44:41;;;;;;;4.82;2.03;;;;;;;;;;5098812;28;20039;-71
2022/06/16 06:47:07;;;;;;;5.95;2.40;;;17.10;99.90;;;;;;5115398;28;20032;-73
2022/06/16 06:49:33;;;;;;;5.80;2.10;;;15.50;99.80;;;;;;5117002;27;20040;-71
2022/06/16 06:51:59;;;;;;;6.80;2.45;;;15.50;96.70;;;;;;5115580;28;20121;-72
2022/06/16 06:54:25;;;;;;;5.68;2.50;;;;;;;;;;5098360;28;20040;-71
2022/06/16 06:56:51;;;;;;;8.13;2.40;;;16.50;96.10;;;;;;5115461;28;20504;-71
2022/06/16 06:59:19;;;;;;;7.95;2.47;;;17.70;99.20;;;;;;5098130;28;20035;-71
2022/06/16 07:01:49;;;;;;;11.63;2.60;;;16.60;96.60;;;;;;5098125;28;20046;-71
2022/06/16 07:04:16;;;;;;;7.80;2.45;;;;;;;;;;5115101;28;20124;-71
2022/06/16 07:06:43;;;;;;;6.53;2.42;;;16.60;96.10;;;;;;5115200;28;20040;-71
2022/06/16 07:09:13;;;;;;;9.32;2.60;;;15.90;99.00;;;;;;5114967;28;20040;-71
2022/06/16 07:11:41;;;;;;;6.07;2.45;;;17.40;99.50;;;;;;5098103;28;20056;-72
2022/06/16 07:14:07;;;;;;;7.75;2.65;;;;;;;;;;5115007;28;20128;-71
2022/06/16 07:16:33;;;;;;;8.98;2.65;;;;;;;;;;5098183;28;20036;-72
2022/06/16 07:19:00;;;;;;;6.65;2.70;;;;;;;;;;5097965;28;20082;-71
2022/06/16 07:21:26;;;;;;;8.50;2.65;;;;;;;;;;5115046;28;20047;-71
2022/06/16 07:23:53;;;;;;;10.45;2.72;;;;;;;;;;5113627;28;20089;-71
2022/06/16 07:26:19;;;;;;;8.85;3.15;;;;;;;;;;5098104;28;20048;-72
2022/06/16 07:28:47;;;;;;;7.00;2.70;;;;;;;;;;5114884;28;20057;-72
2022/06/16 07:31:13;;;;;;;9.15;3.20;;;18.10;98.60;;;;;;5114706;28;20051;-72
2022/06/16 07:33:39;;;;;;;8.60;3.20;;;;;;;;;;5114502;28;20040;-72
2022/06/16 07:36:06;;;;;;;5.95;3.10;;;17.30;98.30;;;;;;5114403;28;20039;-72
2022/06/16 07:38:32;;;;;;;6.75;2.70;;;;;;;;;;5114486;28;20040;-72
2022/06/16 07:43:42;;;;;;;7.15;3.00;;;18.30;98.30;;;;;;5114224;28;20495;-72
2022/06/16 07:46:09;;;;;;;6.68;2.40;;;;;;;;;;5097300;28;20043;-76
2022/06/16 07:48:35;;;;;;;6.28;2.90;;;;;;;;;;5114306;28;20047;-75
2022/06/16 07:51:01;;;;;;;5.75;2.75;;;;;;;;;;5114012;28;20085;-75
2022/06/16 07:53:27;;;;;;;11.73;3.30;;;18.20;97.30;;;;;;5113918;28;20051;-75
2022/06/16 07:55:53;;;;;;;5.82;2.78;;;18.60;97.30;;;;;;5114211;28;20043;-75
2022/06/16 07:58:19;;;;;;;7.57;2.83;;;;;;;;;;5114150;28;20082;-75
2022/06/16 08:00:45;;;;;;;7.82;2.65;;;;;;;;;;5114247;28;20039;-75
2022/06/16 08:03:11;;;;;;;6.78;2.50;;;;;;;;;;5113852;28;20044;-74
2022/06/16 08:05:37;;;;;;;7.97;2.90;;;;;;;;;;5113887;28;20499;-74
2022/06/16 08:08:04;;;;;;;8.50;3.50;;;18.30;92.30;;;;;;5097066;28;20043;-75
2022/06/16 08:10:34;;;;;;;7.85;2.80;;;;;;;;;;5113886;28;20044;-74
2022/06/16 08:13:00;;;;;;;6.65;3.28;;;;;;;;;;5096766;28;20500;-74
2022/06/16 08:15:27;;;;;;;8.90;3.28;;;;;;;;;;5113912;28;20036;-74
2022/06/16 08:17:56;;;;;;;11.25;3.60;;;18.20;92.00;;;;;;5113849;28;20097;-74
2022/06/16 08:20:22;;;;;;;4.75;2.75;;;;;;;;;;5096783;28;20039;-71
2022/06/16 08:22:48;;;;;;;6.05;2.63;;;;;;;;;;5096553;28;20044;-71
2022/06/16 08:25:17;;;;;;;8.70;3.40;;;;;;;;;;5113644;28;20048;-71
2022/06/16 08:27:44;;;;;;;6.38;3.28;;;18.80;95.10;;;;;;5113836;28;20044;-71
2022/06/16 08:30:13;;;;;;;6.10;3.28;;;17.50;94.70;;;;;;5113397;28;20039;-71
2022/06/16 08:32:40;;;;;;;8.80;3.67;;;19.20;95.20;;;;;;5113245;28;20039;-72
2022/06/16 08:35:07;;;;;;;7.82;3.03;;;;;;;;;;5113272;28;20083;-71
2022/06/16 08:37:33;;;;;;;8.50;3.80;;;;;;;;;;5113399;28;20039;-71
2022/06/16 08:39:59;;;;;;;8.60;3.28;;;;;;;;;;5113449;28;20048;-71
2022/06/16 08:42:52;;;;;;;7.43;3.20;;;18.80;91.40;;;;;;5113628;28;20036;-70
2022/06/16 08:45:32;;;;;;;6.80;2.88;;;17.80;94.50;;;;;;5113469;28;20058;-71
2022/06/16 08:48:25;;;;;;;8.20;4.40;;;18.30;94.40;;;;;;5113371;28;20043;-72
2022/06/16 08:51:03;;;;;;;6.65;3.75;;;19.60;94.20;;;;;;5113208;28;20035;-71
2022/06/16 08:53:51;;;;;;;11.20;3.65;;;19.10;89.20;;;;;;5113104;28;20043;-72
2022/06/16 08:56:20;;;;;;;7.13;4.07;;;19.30;88.60;;;;;;5096320;28;20436;-71
2022/06/16 08:58:49;;;;;;;8.52;4.57;;;19.80;93.70;;;;;;5096079;28;20039;-71
2022/06/16 09:01:30;;;;;;;10.85;3.90;;;19.40;93.70;;;;;;5113118;28;20043;-71
2022/06/16 09:04:09;;;;;;;12.50;4.97;;;19.70;93.60;;;;;;5112807;28;20132;-71
2022/06/16 09:07:00;;;;;;;12.45;4.88;;;19.30;89.60;;;;;;5113060;28;20122;-71
2022/06/16 09:12:43;;;;;;;9.07;4.05;;;19.50;93.10;;;;;;5112472;28;20116;-71
2022/06/16 09:15:36;;;;;;;6.82;3.97;;;19.80;93.20;;;;;;5112692;28;20059;-72
2022/06/16 09:18:04;;;;;;;9.50;4.35;;;19.40;92.80;;;;;;5112415;28;20122;-72
2022/06/16 09:20:58;;;;;;;7.03;4.00;;;20.50;92.50;;;;;;5112665;28;20051;-71
2022/06/16 09:23:25;;;;;;;10.50;4.35;;;;;;;;;;5112822;28;20039;-71
2022/06/16 09:26:13;;;;;;;8.63;4.07;;;20.10;91.80;;;;;;5112558;28;20165;-71
2022/06/16 09:28:56;;;;;;;8.68;4.35;;;19.80;84.60;;;;;;5095780;28;20051;-71
2022/06/16 09:31:30;;;;;;;12.30;4.70;;;20.10;86.40;;;;;;5112750;28;20051;-71
2022/06/16 09:34:40;;;;;;;13.82;5.22;;;19.50;91.80;;;;;;5112626;28;20036;-71
2022/06/16 09:37:14;;;;;;;9.38;4.93;;;19.90;85.70;;;;;;5091099;28;20134;-71
2022/06/16 09:39:47;;;;;;;10.77;4.93;;;19.90;85.30;;;;;;5112678;28;20032;-71
2022/06/16 09:42:37;;;;;;;19.63;5.63;;;20.80;91.40;;;;;;5112715;28;20062;-71
2022/06/16 09:45:13;;;;;;;9.32;4.90;;;19.70;91.10;;;;;;5095268;28;20039;-71
2022/06/16 09:47:55;;;;;;;11.25;4.78;;;20.90;91.50;;;;;;5114222;28;20089;-71
2022/06/16 09:50:21;;;;;;;10.57;5.07;;;;;;;;;;5116509;28;20522;-71
2022/06/16 09:52:54;;;;;;;8.63;4.40;;;20.40;84.60;;;;;;5116265;28;20046;-71
2022/06/16 09:55:43;;;;;;;10.85;4.78;;;20.90;91.20;;;;;;5116746;28;20039;-71
2022/06/16 09:58:09;;;;;;;10.15;5.28;;;;;;;;;;5115842;28;20050;-71
2022/06/16 10:00:35;;;;;;;8.65;5.55;;;20.20;90.70;;;;;;5116685;28;20055;-71
2022/06/16 10:03:15;;;;;;;9.35;4.88;;;20.20;90.60;;;;;;5099356;28;20483;-71
2022/06/16 10:05:58;;;;;;;11.88;4.90;;;21.40;90.70;;;;;;5116398;28;20040;-71
2022/06/16 10:08:50;;;;;;;10.32;4.95;;;20.60;90.80;;;;;;5099216;28;20047;-71
2022/06/16 10:11:37;;;;;;;9.82;5.18;;;20.20;90.50;;;;;;5116421;28;20027;-71
2022/06/16 10:14:16;;;;;;;10.13;5.72;;;21.00;90.50;;;;;;5098920;28;20440;-71
2022/06/16 10:16:47;;;;;;;12.07;5.07;;;21.40;89.00;;;;;;5116006;28;20122;-71
2022/06/16 10:19:13;;;;;;;8.77;4.63;;;;;;;;;;5116028;28;20040;-70
2022/06/16 10:21:39;;;;;;;7.60;4.40;;;20.90;90.50;;;;;;5115875;28;20051;-71
2022/06/16 10:24:06;;;;;;;9.60;4.40;;;21.20;90.40;;;;;;5099051;28;20039;-71
2022/06/16 10:26:34;;;;;;;11.32;4.60;;;;;;;;;;5115817;28;20538;-71
2022/06/16 10:29:00;;;;;;;8.48;4.28;;;;;;;;;;5098804;28;20054;-71
2022/06/16 10:31:41;;;;;;;11.32;4.30;;;20.70;89.50;;;;;;5115680;28;20127;-71
2022/06/16 10:34:38;;;;;;;11.05;4.40;;;20.70;88.90;;;;;;5115786;28;20126;-71
2022/06/16 10:37:18;;;;;;;14.50;5.53;;;21.60;79.80;;;;;;5115996;28;20031;-71
2022/06/16 10:40:05;;;;;;;9.90;4.82;;;20.70;88.80;;;;;;5115818;28;20043;-71
2022/06/16 10:42:41;;;;;;;12.82;5.10;;;21.80;88.80;;;;;;5115740;28;20048;-71
2022/06/16 10:45:31;;;;;;;15.52;5.28;;;21.90;88.40;;;;;;5115520;28;20035;-71
2022/06/16 10:48:17;;;;;;;8.10;4.32;;;22.40;89.30;;;;;;5098872;28;20126;-71
2022/06/16 10:50:48;;;;;;;11.52;4.43;;;19.80;80.30;;;;;;5116866;28;20152;-71
2022/06/16 10:53:34;;;;;;;9.50;4.20;;;22.30;88.40;;;;;;5115384;28;20048;-71
2022/06/16 10:56:10;;;;;;;12.93;4.20;;;21.60;88.40;;;;;;5115423;28;20044;-71
2022/06/16 10:58:50;;;;;;;11.15;4.10;;;22.40;88.50;;;;;;5115184;28;20062;-71
2022/06/16 11:01:29;;;;;;;11.85;4.50;;;22.30;88.70;;;;;;5098560;28;20108;-72
2022/06/16 11:04:10;;;;;;;10.68;4.25;;;21.00;87.90;;;;;;5115357;28;20040;-72
2022/06/16 11:06:57;;;;;;;8.75;4.25;;;22.40;87.70;;;;;;5114978;28;20479;-72
2022/06/16 11:09:29;;;;;;;9.00;4.97;;;22.40;87.80;;;;;;5115030;28;20488;-72
2022/06/16 11:12:13;;;;;;;8.70;3.90;;;22.00;86.60;;;;;;5115588;27;20395;-72
2022/06/16 11:14:38;;;;;;;11.40;4.13;;;21.90;86.90;;;;;;5118619;27;20079;-72
2022/06/16 11:17:36;;;;;;;8.73;4.18;;;22.40;86.80;;;;;;5118376;27;20093;-71
2022/06/16 11:20:21;;;;;;;7.95;4.30;;;22.20;86.10;;;;;;5117323;27;20107;-71
2022/06/16 11:22:50;;;;;;;6.53;3.78;;;22.60;86.30;;;;;;5118235;27;20047;-71
2022/06/16 11:25:36;;;;;;;9.95;4.32;;;21.50;84.70;;;;;;5118655;27;20043;-71
2022/06/16 11:28:12;;;;;;;5.13;3.17;;;21.80;75.90;;;;;;5118407;27;20386;-71
2022/06/16 11:30:47;;;;;;;10.48;4.40;;;22.80;83.80;;;;;;5118455;27;20309;-71
2022/06/16 11:36:51;;;;;;;8.40;4.10;;;22.20;84.00;;;;;;5118219;27;20043;-71
2022/06/16 11:39:45;;;;;;;7.32;4.38;;;22.50;84.50;;;;;;5118228;27;20043;-71
2022/06/16 11:42:38;;;;;;;7.47;4.28;;;22.60;84.80;;;;;;5117897;27;20092;-75
2022/06/16 11:45:45;;;;;;;12.00;3.47;;;22.80;84.60;;;;;;5066695;27;20057;-74
2022/06/16 11:48:26;;;;;;;8.77;3.60;;;22.20;82.20;;;;;;5104153;27;20534;-74
2022/06/16 11:51:09;;;;;;;7.68;3.58;;;22.40;82.30;;;;;;5117890;27;20030;-74
2022/06/16 11:53:53;;;;;;;8.85;3.90;;;21.80;81.80;;;;;;5100582;27;20039;-74
2022/06/16 11:56:43;;;;;;;8.93;4.32;;;22.90;82.70;;;;;;5117498;27;20039;-71
2022/06/16 11:59:36;;;;;;;8.35;4.20;;;22.60;82.80;;;;;;5117480;27;20039;-72
2022/06/16 12:02:27;;;;;;;8.50;3.67;;;22.60;75.00;;;;;;5117275;27;20121;-71
2022/06/16 12:04:53;;;;;;;9.70;4.13;;;;;;;;;;5070121;27;20078;-71
2022/06/16 12:07:28;;;;;;;12.15;4.22;;;23.10;82.90;;;;;;5117150;27;20035;-71
2022/06/16 12:10:11;;;;;;;7.65;4.05;;;22.70;82.10;;;;;;5116374;27;20042;-71
2022/06/16 12:13:15;;;;;;;6.20;3.78;;;23.30;82.70;;;;;;5099952;27;20508;-71
2022/06/16 12:15:50;;;;;;;7.32;3.45;;;23.40;82.80;;;;;;4999432;28;20056;-71
2022/06/16 12:18:36;;;;;;;11.40;3.85;;;23.10;82.80;;;;;;5016039;28;20041;-71
2022/06/16 12:21:12;;;;;;;10.27;3.70;;;22.40;82.40;;;;;;5067173;27;20047;-71
2022/06/16 12:24:06;;;;;;;8.45;3.67;;;23.40;83.00;;;;;;5117195;27;20043;-71
2022/06/16 12:26:44;;;;;;;6.05;3.80;;;23.50;83.50;;;;;;5116995;27;20043;-71
2022/06/16 12:29:33;;;;;;;6.80;3.03;;;23.50;83.90;;;;;;5117296;27;20070;-71
2022/06/16 12:32:36;;;;;;;8.45;3.83;;;23.30;83.30;;;;;;5116856;27;20153;-71
2022/06/16 12:35:14;;;;;;;6.05;3.70;;;23.70;80.70;;;;;;5116844;27;20054;-71
2022/06/16 12:37:55;;;;;;;6.70;3.10;;;23.80;84.50;;;;;;5117032;27;20039;-71
2022/06/16 12:40:49;;;;;;;5.93;3.80;;;22.70;84.00;;;;;;5116842;27;20483;-71
2022/06/16 12:43:27;;;;;;;12.23;3.47;;;23.80;77.60;;;;;;5096398;27;20039;-71
2022/06/16 12:46:03;;;;;;;13.10;4.38;;;23.30;80.70;;;;;;5116576;27;20039;-71
2022/06/16 12:48:57;;;;;;;7.57;3.30;;;23.60;84.50;;;;;;5116758;27;20092;-71
2022/06/16 12:51:33;;;;;;;10.07;3.90;;;23.10;83.70;;;;;;5116359;27;20035;-72
2022/06/16 12:54:03;;;;;;;7.30;3.55;;;23.00;83.20;;;;;;5116197;27;20039;-71
2022/06/16 12:56:58;;;;;;;5.03;3.38;;;23.30;76.50;;;;;;5116617;27;20051;-71
2022/06/16 12:59:31;;;;;;;5.97;3.50;;;24.10;81.30;;;;;;5115599;27;20047;-71
2022/06/16 13:01:59;;;;;;;7.40;3.58;;;24.20;81.30;;;;;;5116379;27;20050;-72
2022/06/16 13:04:31;;;;;;;7.30;3.53;;;22.70;80.60;;;;;;5117000;27;20035;-71
2022/06/16 13:07:00;;;;;;;11.18;3.95;;;23.10;80.10;;;;;;5116266;27;20068;-71
2022/06/16 13:09:26;;;;;;;7.45;3.65;;;22.60;80.30;;;;;;5116170;27;20091;-71
2022/06/16 13:12:06;;;;;;;12.38;4.15;;;23.40;82.50;;;;;;5099101;27;20487;-72
2022/06/16 13:14:42;;;;;;;6.72;3.80;;;23.70;83.10;;;;;;5116097;27;20058;-71
2022/06/16 13:17:11;;;;;;;9.43;4.10;;;23.40;82.90;;;;;;5134490;27;20031;-72
2022/06/16 13:19:50;;;;;;;12.65;4.20;;;22.80;82.50;;;;;;5116012;27;20043;-72
2022/06/16 13:22:24;;;;;;;6.55;3.58;;;23.90;83.20;;;;;;5115786;27;20042;-71
2022/06/16 13:24:50;;;;;;;9.23;3.97;;;24.40;83.20;;;;;;5099077;27;20095;-71
2022/06/16 13:27:38;;;;;;;9.35;4.30;;;23.50;74.40;;;;;;5116199;28;20125;-71
2022/06/16 13:30:04;;;;;;;7.78;3.70;;;23.90;76.40;;;;;;5116050;28;20506;-72
2022/06/16 13:32:33;;;;;;;6.85;4.00;;;24.10;83.20;;;;;;5116117;27;20047;-71
2022/06/16 13:35:00;;;;;;;6.65;3.85;;;23.80;83.00;;;;;;5115897;28;20049;-75
2022/06/16 13:37:32;;;;;;;6.97;4.13;;;22.80;83.10;;;;;;5116124;28;20051;-75
2022/06/16 13:40:04;;;;;;;;;;;23.40;76.50;;;;;;5099527;28;20035;-75
2022/06/16 13:42:52;;;;;;;9.75;3.67;;;24.10;84.30;;;;;;5115726;28;20439;-74
2022/06/16 13:45:29;;;;;;;10.60;4.40;;;23.40;73.70;;;;;;5116017;28;20159;-74
2022/06/16 13:48:18;;;;;;;7.65;3.50;;;23.60;84.20;;;;;;5098994;28;20043;-75
2022/06/16 13:50:55;;;;;;;10.32;4.00;;;22.80;77.30;;;;;;5115697;28;20599;-75
2022/06/16 13:53:30;;;;;;;6.90;3.80;;;23.60;83.50;;;;;;5098671;28;20039;-75
2022/06/16 13:56:08;;;;;;;10.80;3.80;;;24.00;83.40;;;;;;5115975;28;20045;-74
2022/06/16 13:58:37;;;;;;;13.15;4.20;;;23.10;83.10;;;;;;5115604;28;20071;-75
2022/06/16 14:01:09;;;;;;;6.75;3.50;;;24.30;83.10;;;;;;5115667;28;20074;-75
2022/06/16 14:03:45;;;;;;;8.00;4.10;;;23.40;79.30;;;;;;5115811;28;20386;-75
2022/06/16 14:06:15;;;;;;;7.68;4.15;;;23.70;74.00;;;;;;5115479;28;20499;-75
2022/06/16 14:08:49;;;;;;;9.85;4.10;;;23.70;81.10;;;;;;5115718;28;20447;-74
2022/06/16 14:11:21;;;;;;;8.63;4.28;;;24.00;73.80;;;;;;5115541;28;20463;-75
2022/06/16 14:14:05;;;;;;;16.35;5.07;;;24.10;81.50;;;;;;5115310;28;20062;-74
2022/06/16 14:16:47;;;;;;;12.50;4.60;;;23.70;71.70;;;;;;5115347;27;20078;-74